sensor_id;sensor_type;location;lat;lon;timestamp;P1;durP1;ratioP1;P2;durP2;ratioP2
42598;SDS011;28225;42.714;23.860;2023-12-28T00:00:00;23.03;;;16.13;;
42598;SDS011;28225;42.714;23.860;2023-12-28T00:00:15;26.07;;;16.73;;
42598;SDS011;28225;42.714;23.860;2023-12-28T00:00:31;28.35;;;18.45;;
42598;SDS011;28225;42.714;23.860;2023-12-28T00:00:46;26.47;;;18.53;;
42598;SDS011;28225;42.714;23.860;2023-12-28T00:01:03;25.90;;;17.83;;
42598;SDS011;28225;42.714;23.860;2023-12-28T00:01:18;26.30;;;18.30;;
42598;SDS011;28225;42.714;23.860;2023-12-28T00:01:34;28.50;;;18.33;;
42598;SDS011;28225;42.714;23.860;2023-12-28T00:01:49;30.38;;;18.17;;
42598;SDS011;28225;42.714;23.860;2023-12-28T00:02:05;29.10;;;19.40;;
42598;SDS011;28225;42.714;23.860;2023-12-28T00:02:21;30.73;;;20.47;;
42598;SDS011;28225;42.714;23.860;2023-12-28T00:02:36;32.33;;;20.33;;
42598;SDS011;28225;42.714;23.860;2023-12-28T00:02:51;31.73;;;20.37;;
42598;SDS011;28225;42.714;23.860;2023-12-28T00:03:07;32.92;;;21.70;;
42598;SDS011;28225;42.714;23.860;2023-12-28T00:03:22;35.07;;;22.13;;
42598;SDS011;28225;42.714;23.860;2023-12-28T00:03:38;36.78;;;22.27;;
42598;SDS011;28225;42.714;23.860;2023-12-28T00:03:55;36.88;;;22.85;;
42598;SDS011;28225;42.714;23.860;2023-12-28T00:04:11;37.05;;;22.75;;
42598;SDS011;28225;42.714;23.860;2023-12-28T00:04:26;33.60;;;21.37;;
42598;SDS011;28225;42.714;23.860;2023-12-28T00:04:43;29.73;;;20.63;;
42598;SDS011;28225;42.714;23.860;2023-12-28T00:04:58;33.17;;;21.87;;
42598;SDS011;28225;42.714;23.860;2023-12-28T00:05:14;37.03;;;22.55;;
42598;SDS011;28225;42.714;23.860;2023-12-28T00:05:29;35.37;;;22.13;;
42598;SDS011;28225;42.714;23.860;2023-12-28T00:05:45;34.90;;;22.55;;
42598;SDS011;28225;42.714;23.860;2023-12-28T00:06:00;35.07;;;22.37;;
42598;SDS011;28225;42.714;23.860;2023-12-28T00:06:16;35.67;;;22.67;;
42598;SDS011;28225;42.714;23.860;2023-12-28T00:06:31;34.73;;;22.30;;
42598;SDS011;28225;42.714;23.860;2023-12-28T00:06:47;32.03;;;21.42;;
42598;SDS011;28225;42.714;23.860;2023-12-28T00:07:02;34.03;;;21.63;;
42598;SDS011;28225;42.714;23.860;2023-12-28T00:07:18;33.63;;;22.02;;
42598;SDS011;28225;42.714;23.860;2023-12-28T00:07:34;33.38;;;22.85;;
42598;SDS011;28225;42.714;23.860;2023-12-28T00:07:50;38.58;;;23.88;;
42598;SDS011;28225;42.714;23.860;2023-12-28T00:08:12;36.22;;;23.30;;
42598;SDS011;28225;42.714;23.860;2023-12-28T00:08:28;32.58;;;22.50;;
42598;SDS011;28225;42.714;23.860;2023-12-28T00:08:43;31.53;;;22.37;;
42598;SDS011;28225;42.714;23.860;2023-12-28T00:08:59;31.88;;;22.40;;
42598;SDS011;28225;42.714;23.860;2023-12-28T00:09:15;32.20;;;21.48;;
42598;SDS011;28225;42.714;23.860;2023-12-28T00:09:31;30.85;;;20.90;;
42598;SDS011;28225;42.714;23.860;2023-12-28T00:09:46;30.00;;;21.13;;
42598;SDS011;28225;42.714;23.860;2023-12-28T00:10:02;31.67;;;21.23;;
42598;SDS011;28225;42.714;23.860;2023-12-28T00:10:18;31.73;;;21.20;;
42598;SDS011;28225;42.714;23.860;2023-12-28T00:10:34;31.47;;;20.83;;
42598;SDS011;28225;42.714;23.860;2023-12-28T00:10:51;33.80;;;20.85;;
42598;SDS011;28225;42.714;23.860;2023-12-28T00:11:07;31.20;;;20.57;;
42598;SDS011;28225;42.714;23.860;2023-12-28T00:11:22;32.05;;;20.63;;
42598;SDS011;28225;42.714;23.860;2023-12-28T00:11:38;32.67;;;20.63;;
42598;SDS011;28225;42.714;23.860;2023-12-28T00:11:54;30.85;;;20.20;;
42598;SDS011;28225;42.714;23.860;2023-12-28T00:12:10;32.75;;;20.23;;
42598;SDS011;28225;42.714;23.860;2023-12-28T00:12:26;30.60;;;19.95;;
42598;SDS011;28225;42.714;23.860;2023-12-28T00:12:41;29.33;;;20.00;;
42598;SDS011;28225;42.714;23.860;2023-12-28T00:12:57;30.63;;;19.55;;
42598;SDS011;28225;42.714;23.860;2023-12-28T00:13:12;29.85;;;19.05;;
42598;SDS011;28225;42.714;23.860;2023-12-28T00:13:28;28.17;;;18.67;;
42598;SDS011;28225;42.714;23.860;2023-12-28T00:13:43;28.03;;;18.90;;
42598;SDS011;28225;42.714;23.860;2023-12-28T00:13:59;28.08;;;19.27;;
42598;SDS011;28225;42.714;23.860;2023-12-28T00:14:14;27.30;;;18.50;;
42598;SDS011;28225;42.714;23.860;2023-12-28T00:14:30;26.73;;;18.05;;
42598;SDS011;28225;42.714;23.860;2023-12-28T00:14:45;26.83;;;18.03;;
42598;SDS011;28225;42.714;23.860;2023-12-28T00:15:00;27.02;;;18.52;;
42598;SDS011;28225;42.714;23.860;2023-12-28T00:15:16;27.10;;;18.50;;
42598;SDS011;28225;42.714;23.860;2023-12-28T00:15:31;27.08;;;17.92;;
42598;SDS011;28225;42.714;23.860;2023-12-28T00:15:47;27.47;;;18.73;;
42598;SDS011;28225;42.714;23.860;2023-12-28T00:16:02;27.02;;;19.65;;
42598;SDS011;28225;42.714;23.860;2023-12-28T00:16:19;27.00;;;19.60;;
42598;SDS011;28225;42.714;23.860;2023-12-28T00:16:34;27.60;;;19.77;;
42598;SDS011;28225;42.714;23.860;2023-12-28T00:16:52;27.55;;;19.35;;
42598;SDS011;28225;42.714;23.860;2023-12-28T00:17:07;30.17;;;19.13;;
42598;SDS011;28225;42.714;23.860;2023-12-28T00:17:23;31.23;;;19.97;;
42598;SDS011;28225;42.714;23.860;2023-12-28T00:17:38;28.70;;;20.27;;
42598;SDS011;28225;42.714;23.860;2023-12-28T00:17:53;29.33;;;20.77;;
42598;SDS011;28225;42.714;23.860;2023-12-28T00:18:09;35.70;;;23.13;;
42598;SDS011;28225;42.714;23.860;2023-12-28T00:18:25;39.63;;;24.05;;
42598;SDS011;28225;42.714;23.860;2023-12-28T00:18:40;41.83;;;24.98;;
42598;SDS011;28225;42.714;23.860;2023-12-28T00:18:56;41.33;;;26.17;;
42598;SDS011;28225;42.714;23.860;2023-12-28T00:19:11;41.27;;;26.67;;
42598;SDS011;28225;42.714;23.860;2023-12-28T00:19:27;42.65;;;26.90;;
42598;SDS011;28225;42.714;23.860;2023-12-28T00:19:42;44.10;;;27.27;;
42598;SDS011;28225;42.714;23.860;2023-12-28T00:19:57;43.38;;;27.35;;
42598;SDS011;28225;42.714;23.860;2023-12-28T00:20:13;40.17;;;26.60;;
42598;SDS011;28225;42.714;23.860;2023-12-28T00:20:28;42.38;;;26.60;;
42598;SDS011;28225;42.714;23.860;2023-12-28T00:20:44;47.70;;;27.83;;
42598;SDS011;28225;42.714;23.860;2023-12-28T00:20:59;47.08;;;27.80;;
42598;SDS011;28225;42.714;23.860;2023-12-28T00:21:15;45.20;;;27.90;;
42598;SDS011;28225;42.714;23.860;2023-12-28T00:21:30;48.80;;;28.63;;
42598;SDS011;28225;42.714;23.860;2023-12-28T00:21:46;48.40;;;29.02;;
42598;SDS011;28225;42.714;23.860;2023-12-28T00:22:01;45.80;;;29.10;;
42598;SDS011;28225;42.714;23.860;2023-12-28T00:22:17;49.03;;;29.20;;
42598;SDS011;28225;42.714;23.860;2023-12-28T00:22:32;52.30;;;28.63;;
42598;SDS011;28225;42.714;23.860;2023-12-28T00:22:47;50.35;;;28.17;;
42598;SDS011;28225;42.714;23.860;2023-12-28T00:23:03;43.93;;;28.27;;
42598;SDS011;28225;42.714;23.860;2023-12-28T00:23:20;45.33;;;28.73;;
42598;SDS011;28225;42.714;23.860;2023-12-28T00:23:35;49.28;;;29.05;;
42598;SDS011;28225;42.714;23.860;2023-12-28T00:23:51;50.20;;;28.60;;
42598;SDS011;28225;42.714;23.860;2023-12-28T00:24:06;50.17;;;29.80;;
42598;SDS011;28225;42.714;23.860;2023-12-28T00:24:22;47.60;;;29.73;;
42598;SDS011;28225;42.714;23.860;2023-12-28T00:24:37;44.03;;;27.42;;
42598;SDS011;28225;42.714;23.860;2023-12-28T00:24:53;44.63;;;26.83;;
42598;SDS011;28225;42.714;23.860;2023-12-28T00:25:08;48.10;;;27.02;;
42598;SDS011;28225;42.714;23.860;2023-12-28T00:25:24;49.10;;;27.87;;
42598;SDS011;28225;42.714;23.860;2023-12-28T00:25:39;42.38;;;26.98;;
42598;SDS011;28225;42.714;23.860;2023-12-28T00:25:55;39.27;;;24.97;;
42598;SDS011;28225;42.714;23.860;2023-12-28T00:26:10;40.63;;;24.98;;
42598;SDS011;28225;42.714;23.860;2023-12-28T00:26:26;35.73;;;23.17;;
42598;SDS011;28225;42.714;23.860;2023-12-28T00:26:41;31.05;;;20.02;;
42598;SDS011;28225;42.714;23.860;2023-12-28T00:26:56;32.83;;;21.17;;
42598;SDS011;28225;42.714;23.860;2023-12-28T00:27:12;34.40;;;23.63;;
42598;SDS011;28225;42.714;23.860;2023-12-28T00:27:27;36.65;;;25.65;;
42598;SDS011;28225;42.714;23.860;2023-12-28T00:27:43;40.53;;;26.27;;
42598;SDS011;28225;42.714;23.860;2023-12-28T00:28:00;43.70;;;27.17;;
42598;SDS011;28225;42.714;23.860;2023-12-28T00:28:16;45.90;;;28.60;;
42598;SDS011;28225;42.714;23.860;2023-12-28T00:28:31;45.10;;;28.15;;
42598;SDS011;28225;42.714;23.860;2023-12-28T00:28:47;45.37;;;28.40;;
42598;SDS011;28225;42.714;23.860;2023-12-28T00:29:03;43.90;;;28.08;;
42598;SDS011;28225;42.714;23.860;2023-12-28T00:29:18;42.53;;;26.40;;
42598;SDS011;28225;42.714;23.860;2023-12-28T00:29:33;41.80;;;25.63;;
42598;SDS011;28225;42.714;23.860;2023-12-28T00:29:49;39.75;;;23.08;;
42598;SDS011;28225;42.714;23.860;2023-12-28T00:30:05;33.53;;;19.13;;
42598;SDS011;28225;42.714;23.860;2023-12-28T00:30:21;29.67;;;19.02;;
42598;SDS011;28225;42.714;23.860;2023-12-28T00:30:36;31.13;;;20.38;;
42598;SDS011;28225;42.714;23.860;2023-12-28T00:30:51;29.77;;;20.43;;
42598;SDS011;28225;42.714;23.860;2023-12-28T00:31:08;31.65;;;22.27;;
42598;SDS011;28225;42.714;23.860;2023-12-28T00:31:24;37.03;;;24.75;;
42598;SDS011;28225;42.714;23.860;2023-12-28T00:31:40;39.33;;;25.00;;
42598;SDS011;28225;42.714;23.860;2023-12-28T00:31:55;40.88;;;25.25;;
42598;SDS011;28225;42.714;23.860;2023-12-28T00:32:10;42.13;;;25.93;;
42598;SDS011;28225;42.714;23.860;2023-12-28T00:32:26;41.17;;;25.45;;
42598;SDS011;28225;42.714;23.860;2023-12-28T00:32:41;43.37;;;24.73;;
42598;SDS011;28225;42.714;23.860;2023-12-28T00:32:59;43.95;;;25.40;;
42598;SDS011;28225;42.714;23.860;2023-12-28T00:33:14;43.37;;;25.30;;
42598;SDS011;28225;42.714;23.860;2023-12-28T00:33:30;41.27;;;24.13;;
42598;SDS011;28225;42.714;23.860;2023-12-28T00:33:45;37.33;;;22.42;;
42598;SDS011;28225;42.714;23.860;2023-12-28T00:34:00;35.87;;;21.70;;
42598;SDS011;28225;42.714;23.860;2023-12-28T00:34:16;35.55;;;22.25;;
42598;SDS011;28225;42.714;23.860;2023-12-28T00:34:31;33.00;;;21.23;;
42598;SDS011;28225;42.714;23.860;2023-12-28T00:34:47;31.10;;;19.55;;
42598;SDS011;28225;42.714;23.860;2023-12-28T00:35:02;31.17;;;18.93;;
42598;SDS011;28225;42.714;23.860;2023-12-28T00:35:19;32.67;;;20.05;;
42598;SDS011;28225;42.714;23.860;2023-12-28T00:35:35;32.22;;;19.02;;
42598;SDS011;28225;42.714;23.860;2023-12-28T00:35:50;30.37;;;17.80;;
42598;SDS011;28225;42.714;23.860;2023-12-28T00:36:06;26.33;;;16.85;;
42598;SDS011;28225;42.714;23.860;2023-12-28T00:36:22;24.35;;;15.95;;
42598;SDS011;28225;42.714;23.860;2023-12-28T00:36:38;23.67;;;14.93;;
42598;SDS011;28225;42.714;23.860;2023-12-28T00:36:53;19.83;;;13.30;;
42598;SDS011;28225;42.714;23.860;2023-12-28T00:37:09;17.63;;;12.77;;
42598;SDS011;28225;42.714;23.860;2023-12-28T00:37:24;18.30;;;12.17;;
42598;SDS011;28225;42.714;23.860;2023-12-28T00:37:40;19.17;;;12.35;;
42598;SDS011;28225;42.714;23.860;2023-12-28T00:37:55;19.47;;;12.17;;
42598;SDS011;28225;42.714;23.860;2023-12-28T00:38:11;17.58;;;11.55;;
42598;SDS011;28225;42.714;23.860;2023-12-28T00:38:26;14.97;;;11.33;;
42598;SDS011;28225;42.714;23.860;2023-12-28T00:38:42;15.32;;;10.63;;
42598;SDS011;28225;42.714;23.860;2023-12-28T00:38:57;13.00;;;9.43;;
42598;SDS011;28225;42.714;23.860;2023-12-28T00:39:13;12.65;;;9.38;;
42598;SDS011;28225;42.714;23.860;2023-12-28T00:39:30;13.00;;;9.52;;
42598;SDS011;28225;42.714;23.860;2023-12-28T00:39:45;13.00;;;9.63;;
42598;SDS011;28225;42.714;23.860;2023-12-28T00:40:02;14.27;;;10.02;;
42598;SDS011;28225;42.714;23.860;2023-12-28T00:40:18;15.30;;;10.57;;
42598;SDS011;28225;42.714;23.860;2023-12-28T00:40:33;16.60;;;11.40;;
42598;SDS011;28225;42.714;23.860;2023-12-28T00:40:49;17.13;;;11.15;;
42598;SDS011;28225;42.714;23.860;2023-12-28T00:41:04;20.27;;;13.00;;
42598;SDS011;28225;42.714;23.860;2023-12-28T00:41:19;24.60;;;15.83;;
42598;SDS011;28225;42.714;23.860;2023-12-28T00:41:35;26.88;;;16.95;;
42598;SDS011;28225;42.714;23.860;2023-12-28T00:41:51;26.05;;;16.73;;
42598;SDS011;28225;42.714;23.860;2023-12-28T00:42:06;24.20;;;15.37;;
42598;SDS011;28225;42.714;23.860;2023-12-28T00:42:22;24.48;;;15.35;;
42598;SDS011;28225;42.714;23.860;2023-12-28T00:42:37;23.10;;;15.77;;
42598;SDS011;28225;42.714;23.860;2023-12-28T00:42:55;22.40;;;15.63;;
42598;SDS011;28225;42.714;23.860;2023-12-28T00:43:11;23.67;;;15.23;;
42598;SDS011;28225;42.714;23.860;2023-12-28T00:43:26;22.60;;;14.40;;
42598;SDS011;28225;42.714;23.860;2023-12-28T00:43:42;22.23;;;14.48;;
42598;SDS011;28225;42.714;23.860;2023-12-28T00:43:57;22.87;;;15.53;;
42598;SDS011;28225;42.714;23.860;2023-12-28T00:44:12;24.40;;;16.38;;
42598;SDS011;28225;42.714;23.860;2023-12-28T00:44:28;24.43;;;16.40;;
42598;SDS011;28225;42.714;23.860;2023-12-28T00:44:43;26.23;;;16.63;;
42598;SDS011;28225;42.714;23.860;2023-12-28T00:44:59;29.00;;;17.47;;
42598;SDS011;28225;42.714;23.860;2023-12-28T00:45:14;29.50;;;17.77;;
42598;SDS011;28225;42.714;23.860;2023-12-28T00:45:30;28.25;;;18.00;;
42598;SDS011;28225;42.714;23.860;2023-12-28T00:45:45;29.00;;;18.50;;
42598;SDS011;28225;42.714;23.860;2023-12-28T00:46:01;33.45;;;18.70;;
42598;SDS011;28225;42.714;23.860;2023-12-28T00:46:17;29.33;;;18.45;;
42598;SDS011;28225;42.714;23.860;2023-12-28T00:46:32;25.87;;;17.90;;
42598;SDS011;28225;42.714;23.860;2023-12-28T00:46:48;24.92;;;17.70;;
42598;SDS011;28225;42.714;23.860;2023-12-28T00:47:03;23.48;;;16.50;;
42598;SDS011;28225;42.714;23.860;2023-12-28T00:47:19;23.40;;;16.17;;
42598;SDS011;28225;42.714;23.860;2023-12-28T00:47:35;24.30;;;16.40;;
42598;SDS011;28225;42.714;23.860;2023-12-28T00:47:50;24.50;;;16.23;;
42598;SDS011;28225;42.714;23.860;2023-12-28T00:48:07;26.05;;;16.58;;
42598;SDS011;28225;42.714;23.860;2023-12-28T00:48:22;28.43;;;18.47;;
42598;SDS011;28225;42.714;23.860;2023-12-28T00:48:38;29.58;;;19.88;;
42598;SDS011;28225;42.714;23.860;2023-12-28T00:48:53;27.57;;;19.30;;
42598;SDS011;28225;42.714;23.860;2023-12-28T00:49:08;26.77;;;18.33;;
42598;SDS011;28225;42.714;23.860;2023-12-28T00:49:24;27.70;;;18.90;;
42598;SDS011;28225;42.714;23.860;2023-12-28T00:49:39;29.52;;;19.17;;
42598;SDS011;28225;42.714;23.860;2023-12-28T00:49:55;29.83;;;18.93;;
42598;SDS011;28225;42.714;23.860;2023-12-28T00:50:10;30.90;;;20.30;;
42598;SDS011;28225;42.714;23.860;2023-12-28T00:50:32;32.47;;;19.95;;
42598;SDS011;28225;42.714;23.860;2023-12-28T00:50:47;33.33;;;20.45;;
42598;SDS011;28225;42.714;23.860;2023-12-28T00:51:03;31.87;;;21.03;;
42598;SDS011;28225;42.714;23.860;2023-12-28T00:51:19;28.95;;;20.30;;
42598;SDS011;28225;42.714;23.860;2023-12-28T00:51:35;30.60;;;19.52;;
42598;SDS011;28225;42.714;23.860;2023-12-28T00:51:51;31.05;;;18.40;;
42598;SDS011;28225;42.714;23.860;2023-12-28T00:52:07;32.67;;;18.97;;
42598;SDS011;28225;42.714;23.860;2023-12-28T00:52:22;33.95;;;20.15;;
42598;SDS011;28225;42.714;23.860;2023-12-28T00:52:38;32.83;;;20.27;;
42598;SDS011;28225;42.714;23.860;2023-12-28T00:52:53;32.47;;;20.15;;
42598;SDS011;28225;42.714;23.860;2023-12-28T00:53:08;34.17;;;20.73;;
42598;SDS011;28225;42.714;23.860;2023-12-28T00:53:25;35.97;;;20.97;;
42598;SDS011;28225;42.714;23.860;2023-12-28T00:53:41;37.63;;;20.90;;
42598;SDS011;28225;42.714;23.860;2023-12-28T00:53:57;37.30;;;21.85;;
42598;SDS011;28225;42.714;23.860;2023-12-28T00:54:12;35.97;;;22.00;;
42598;SDS011;28225;42.714;23.860;2023-12-28T00:54:28;38.03;;;21.73;;
42598;SDS011;28225;42.714;23.860;2023-12-28T00:54:43;34.95;;;20.98;;
42598;SDS011;28225;42.714;23.860;2023-12-28T00:54:58;31.90;;;21.07;;
42598;SDS011;28225;42.714;23.860;2023-12-28T00:55:14;33.35;;;20.20;;
42598;SDS011;28225;42.714;23.860;2023-12-28T00:55:29;31.40;;;19.13;;
42598;SDS011;28225;42.714;23.860;2023-12-28T00:55:45;30.33;;;19.85;;
42598;SDS011;28225;42.714;23.860;2023-12-28T00:56:00;35.30;;;20.20;;
42598;SDS011;28225;42.714;23.860;2023-12-28T00:56:16;34.00;;;19.13;;
42598;SDS011;28225;42.714;23.860;2023-12-28T00:56:31;29.90;;;18.75;;
42598;SDS011;28225;42.714;23.860;2023-12-28T00:56:47;33.63;;;19.27;;
42598;SDS011;28225;42.714;23.860;2023-12-28T00:57:02;33.42;;;19.00;;
42598;SDS011;28225;42.714;23.860;2023-12-28T00:57:19;30.45;;;18.73;;
42598;SDS011;28225;42.714;23.860;2023-12-28T00:57:34;29.08;;;18.55;;
42598;SDS011;28225;42.714;23.860;2023-12-28T00:57:49;29.80;;;18.37;;
42598;SDS011;28225;42.714;23.860;2023-12-28T00:58:05;31.70;;;19.67;;
42598;SDS011;28225;42.714;23.860;2023-12-28T00:58:20;32.70;;;20.23;;
42598;SDS011;28225;42.714;23.860;2023-12-28T00:58:38;33.20;;;20.10;;
42598;SDS011;28225;42.714;23.860;2023-12-28T00:58:54;32.80;;;20.35;;
42598;SDS011;28225;42.714;23.860;2023-12-28T00:59:10;28.65;;;19.35;;
42598;SDS011;28225;42.714;23.860;2023-12-28T00:59:25;27.53;;;18.60;;
42598;SDS011;28225;42.714;23.860;2023-12-28T00:59:41;28.90;;;17.93;;
42598;SDS011;28225;42.714;23.860;2023-12-28T00:59:57;29.17;;;17.27;;
42598;SDS011;28225;42.714;23.860;2023-12-28T01:00:12;29.17;;;17.63;;
42598;SDS011;28225;42.714;23.860;2023-12-28T01:00:28;25.77;;;17.40;;
42598;SDS011;28225;42.714;23.860;2023-12-28T01:00:44;23.33;;;16.02;;
42598;SDS011;28225;42.714;23.860;2023-12-28T01:00:59;24.50;;;15.97;;
42598;SDS011;28225;42.714;23.860;2023-12-28T01:01:15;26.07;;;15.93;;
42598;SDS011;28225;42.714;23.860;2023-12-28T01:01:30;24.52;;;14.93;;
42598;SDS011;28225;42.714;23.860;2023-12-28T01:01:46;22.80;;;14.97;;
42598;SDS011;28225;42.714;23.860;2023-12-28T01:02:01;22.30;;;14.80;;
42598;SDS011;28225;42.714;23.860;2023-12-28T01:02:16;20.00;;;14.07;;
42598;SDS011;28225;42.714;23.860;2023-12-28T01:02:32;22.17;;;14.05;;
42598;SDS011;28225;42.714;23.860;2023-12-28T01:02:47;23.23;;;15.27;;
42598;SDS011;28225;42.714;23.860;2023-12-28T01:03:04;20.63;;;15.75;;
42598;SDS011;28225;42.714;23.860;2023-12-28T01:03:19;21.87;;;16.30;;
42598;SDS011;28225;42.714;23.860;2023-12-28T01:03:35;22.70;;;16.67;;
42598;SDS011;28225;42.714;23.860;2023-12-28T01:03:50;21.93;;;16.37;;
42598;SDS011;28225;42.714;23.860;2023-12-28T01:04:06;25.33;;;17.65;;
42598;SDS011;28225;42.714;23.860;2023-12-28T01:04:21;26.70;;;18.87;;
42598;SDS011;28225;42.714;23.860;2023-12-28T01:04:40;27.05;;;18.70;;
42598;SDS011;28225;42.714;23.860;2023-12-28T01:04:55;29.93;;;19.97;;
42598;SDS011;28225;42.714;23.860;2023-12-28T01:05:11;31.63;;;21.88;;
42598;SDS011;28225;42.714;23.860;2023-12-28T01:05:26;32.67;;;22.87;;
42598;SDS011;28225;42.714;23.860;2023-12-28T01:05:43;32.70;;;22.60;;
42598;SDS011;28225;42.714;23.860;2023-12-28T01:06:03;30.90;;;20.90;;
42598;SDS011;28225;42.714;23.860;2023-12-28T01:06:20;30.10;;;20.58;;
42598;SDS011;28225;42.714;23.860;2023-12-28T01:06:35;29.47;;;20.27;;
42598;SDS011;28225;42.714;23.860;2023-12-28T01:06:51;26.52;;;18.75;;
42598;SDS011;28225;42.714;23.860;2023-12-28T01:07:07;26.75;;;18.88;;
42598;SDS011;28225;42.714;23.860;2023-12-28T01:07:23;28.65;;;19.92;;
42598;SDS011;28225;42.714;23.860;2023-12-28T01:07:38;30.10;;;20.60;;
42598;SDS011;28225;42.714;23.860;2023-12-28T01:07:53;31.45;;;20.55;;
42598;SDS011;28225;42.714;23.860;2023-12-28T01:08:09;30.13;;;19.87;;
42598;SDS011;28225;42.714;23.860;2023-12-28T01:08:24;29.13;;;19.20;;
42598;SDS011;28225;42.714;23.860;2023-12-28T01:08:40;28.73;;;19.40;;
42598;SDS011;28225;42.714;23.860;2023-12-28T01:08:55;30.00;;;21.53;;
42598;SDS011;28225;42.714;23.860;2023-12-28T01:09:11;33.95;;;23.67;;
42598;SDS011;28225;42.714;23.860;2023-12-28T01:09:26;34.43;;;23.87;;
42598;SDS011;28225;42.714;23.860;2023-12-28T01:09:41;35.90;;;24.42;;
42598;SDS011;28225;42.714;23.860;2023-12-28T01:09:57;37.33;;;25.03;;
42598;SDS011;28225;42.714;23.860;2023-12-28T01:10:12;34.17;;;24.37;;
42598;SDS011;28225;42.714;23.860;2023-12-28T01:10:28;31.38;;;22.88;;
42598;SDS011;28225;42.714;23.860;2023-12-28T01:10:43;34.67;;;22.90;;
42598;SDS011;28225;42.714;23.860;2023-12-28T01:10:59;36.97;;;22.80;;
42598;SDS011;28225;42.714;23.860;2023-12-28T01:11:15;36.75;;;22.63;;
42598;SDS011;28225;42.714;23.860;2023-12-28T01:11:30;38.33;;;23.67;;
42598;SDS011;28225;42.714;23.860;2023-12-28T01:11:46;38.07;;;24.37;;
42598;SDS011;28225;42.714;23.860;2023-12-28T01:12:01;35.10;;;23.60;;
42598;SDS011;28225;42.714;23.860;2023-12-28T01:12:17;32.17;;;23.47;;
42598;SDS011;28225;42.714;23.860;2023-12-28T01:12:32;31.85;;;23.63;;
42598;SDS011;28225;42.714;23.860;2023-12-28T01:12:48;32.33;;;23.83;;
42598;SDS011;28225;42.714;23.860;2023-12-28T01:13:03;35.22;;;24.48;;
42598;SDS011;28225;42.714;23.860;2023-12-28T01:13:19;36.47;;;24.90;;
42598;SDS011;28225;42.714;23.860;2023-12-28T01:13:34;33.85;;;24.38;;
42598;SDS011;28225;42.714;23.860;2023-12-28T01:13:51;32.15;;;23.15;;
42598;SDS011;28225;42.714;23.860;2023-12-28T01:14:07;34.55;;;23.55;;
42598;SDS011;28225;42.714;23.860;2023-12-28T01:14:22;34.88;;;23.67;;
42598;SDS011;28225;42.714;23.860;2023-12-28T01:14:38;36.27;;;24.10;;
42598;SDS011;28225;42.714;23.860;2023-12-28T01:14:53;37.13;;;24.52;;
42598;SDS011;28225;42.714;23.860;2023-12-28T01:15:09;36.13;;;24.33;;
42598;SDS011;28225;42.714;23.860;2023-12-28T01:15:24;34.33;;;24.15;;
42598;SDS011;28225;42.714;23.860;2023-12-28T01:15:40;35.13;;;24.40;;
42598;SDS011;28225;42.714;23.860;2023-12-28T01:15:55;36.65;;;24.80;;
42598;SDS011;28225;42.714;23.860;2023-12-28T01:16:14;36.17;;;24.93;;
42598;SDS011;28225;42.714;23.860;2023-12-28T01:16:29;37.90;;;25.23;;
42598;SDS011;28225;42.714;23.860;2023-12-28T01:16:45;38.40;;;24.60;;
42598;SDS011;28225;42.714;23.860;2023-12-28T01:17:00;36.42;;;23.70;;
42598;SDS011;28225;42.714;23.860;2023-12-28T01:17:16;37.30;;;23.57;;
42598;SDS011;28225;42.714;23.860;2023-12-28T01:17:32;36.53;;;22.98;;
42598;SDS011;28225;42.714;23.860;2023-12-28T01:17:48;34.97;;;22.20;;
42598;SDS011;28225;42.714;23.860;2023-12-28T01:18:03;32.50;;;21.35;;
42598;SDS011;28225;42.714;23.860;2023-12-28T01:18:19;32.30;;;22.33;;
42598;SDS011;28225;42.714;23.860;2023-12-28T01:18:35;36.00;;;23.33;;
42598;SDS011;28225;42.714;23.860;2023-12-28T01:18:50;38.65;;;23.95;;
42598;SDS011;28225;42.714;23.860;2023-12-28T01:19:05;37.67;;;23.73;;
42598;SDS011;28225;42.714;23.860;2023-12-28T01:19:21;35.67;;;23.50;;
42598;SDS011;28225;42.714;23.860;2023-12-28T01:19:38;35.25;;;23.85;;
42598;SDS011;28225;42.714;23.860;2023-12-28T01:19:53;35.10;;;23.73;;
42598;SDS011;28225;42.714;23.860;2023-12-28T01:20:09;32.63;;;23.13;;
42598;SDS011;28225;42.714;23.860;2023-12-28T01:20:25;31.00;;;22.10;;
42598;SDS011;28225;42.714;23.860;2023-12-28T01:20:40;31.77;;;21.08;;
42598;SDS011;28225;42.714;23.860;2023-12-28T01:20:56;34.37;;;21.43;;
42598;SDS011;28225;42.714;23.860;2023-12-28T01:21:11;32.75;;;20.85;;
42598;SDS011;28225;42.714;23.860;2023-12-28T01:21:27;28.45;;;19.02;;
42598;SDS011;28225;42.714;23.860;2023-12-28T01:21:43;24.98;;;17.35;;
42598;SDS011;28225;42.714;23.860;2023-12-28T01:21:59;27.37;;;18.30;;
42598;SDS011;28225;42.714;23.860;2023-12-28T01:22:14;27.58;;;19.20;;
42598;SDS011;28225;42.714;23.860;2023-12-28T01:22:29;25.90;;;18.67;;
42598;SDS011;28225;42.714;23.860;2023-12-28T01:22:45;28.15;;;19.10;;
42598;SDS011;28225;42.714;23.860;2023-12-28T01:23:01;29.23;;;19.48;;
42598;SDS011;28225;42.714;23.860;2023-12-28T01:23:17;28.30;;;19.15;;
42598;SDS011;28225;42.714;23.860;2023-12-28T01:23:32;26.77;;;18.53;;
42598;SDS011;28225;42.714;23.860;2023-12-28T01:23:48;27.00;;;17.93;;
42598;SDS011;28225;42.714;23.860;2023-12-28T01:24:03;25.88;;;16.88;;
42598;SDS011;28225;42.714;23.860;2023-12-28T01:24:19;25.60;;;16.33;;
42598;SDS011;28225;42.714;23.860;2023-12-28T01:24:34;26.60;;;17.50;;
42598;SDS011;28225;42.714;23.860;2023-12-28T01:24:50;27.37;;;18.60;;
42598;SDS011;28225;42.714;23.860;2023-12-28T01:25:05;28.00;;;19.00;;
42598;SDS011;28225;42.714;23.860;2023-12-28T01:25:21;28.08;;;19.52;;
42598;SDS011;28225;42.714;23.860;2023-12-28T01:25:36;27.73;;;19.03;;
42598;SDS011;28225;42.714;23.860;2023-12-28T01:25:52;26.77;;;18.00;;
42598;SDS011;28225;42.714;23.860;2023-12-28T01:26:13;28.17;;;18.30;;
42598;SDS011;28225;42.714;23.860;2023-12-28T01:26:29;26.92;;;17.75;;
42598;SDS011;28225;42.714;23.860;2023-12-28T01:26:44;24.10;;;16.80;;
42598;SDS011;28225;42.714;23.860;2023-12-28T01:27:00;22.45;;;15.45;;
42598;SDS011;28225;42.714;23.860;2023-12-28T01:27:15;22.67;;;15.43;;
42598;SDS011;28225;42.714;23.860;2023-12-28T01:27:31;24.77;;;16.20;;
42598;SDS011;28225;42.714;23.860;2023-12-28T01:27:46;24.20;;;16.27;;
42598;SDS011;28225;42.714;23.860;2023-12-28T01:28:02;23.38;;;15.85;;
42598;SDS011;28225;42.714;23.860;2023-12-28T01:28:18;23.77;;;15.75;;
42598;SDS011;28225;42.714;23.860;2023-12-28T01:28:33;23.83;;;16.10;;
42598;SDS011;28225;42.714;23.860;2023-12-28T01:28:49;23.50;;;15.60;;
42598;SDS011;28225;42.714;23.860;2023-12-28T01:29:04;24.63;;;15.87;;
42598;SDS011;28225;42.714;23.860;2023-12-28T01:29:20;23.77;;;15.95;;
42598;SDS011;28225;42.714;23.860;2023-12-28T01:29:35;24.97;;;15.93;;
42598;SDS011;28225;42.714;23.860;2023-12-28T01:29:50;26.63;;;16.53;;
42598;SDS011;28225;42.714;23.860;2023-12-28T01:30:06;24.42;;;16.33;;
42598;SDS011;28225;42.714;23.860;2023-12-28T01:30:22;22.13;;;15.80;;